createdAt,value
2023-01-18T13:07:07.571Z,478.00
2023-01-18T13:08:07.457Z,500.00
2023-01-18T13:09:07.344Z,500.00
2023-01-18T13:10:07.250Z,500.00
2023-01-18T13:11:07.167Z,501.00
2023-01-18T13:12:07.102Z,503.00
2023-01-18T13:13:06.985Z,503.00
2023-01-18T13:15:06.793Z,503.00
2023-01-18T13:16:06.713Z,501.00
2023-01-18T13:17:06.647Z,500.00
2023-01-18T13:18:06.617Z,500.00
2023-01-18T13:19:06.606Z,500.00
2023-01-18T13:20:06.561Z,500.00
2023-01-18T13:21:06.532Z,505.00
2023-01-18T13:22:06.508Z,507.00
2023-01-18T13:23:06.473Z,500.00
2023-01-18T13:24:06.442Z,500.00
2023-01-18T13:25:06.422Z,503.00
2023-01-18T13:26:06.421Z,504.00
2023-01-18T13:27:06.374Z,500.00
2023-01-18T13:28:06.352Z,504.00
2023-01-18T13:29:06.314Z,503.00
2023-01-18T13:30:06.292Z,504.00
2023-01-18T13:31:06.405Z,500.00
2023-01-18T13:32:06.238Z,504.00
2023-01-18T13:33:06.225Z,502.00
2023-01-18T13:34:06.198Z,504.00
2023-01-18T13:35:19.608Z,503.00
2023-01-18T13:36:07.127Z,503.00
2023-01-18T13:37:15.062Z,496.00
2023-01-18T13:38:06.887Z,502.00
2023-01-18T13:39:05.782Z,496.00
2023-01-18T13:40:05.696Z,494.00
2023-01-18T13:41:05.605Z,495.00
2023-01-18T13:42:05.518Z,486.00
2023-01-18T14:49:00.220Z,558.00
2023-01-18T14:50:00.141Z,559.00
2023-01-18T14:51:00.049Z,562.00
2023-01-18T14:51:59.979Z,558.00
2023-01-18T14:53:00.428Z,562.00
2023-01-18T14:53:59.807Z,565.00
2023-01-18T14:54:59.728Z,565.00
2023-01-18T14:55:59.652Z,562.00
2023-01-18T14:56:59.567Z,563.00
2023-01-18T14:57:59.497Z,568.00
2023-01-18T14:58:59.429Z,565.00
2023-01-18T14:59:59.332Z,572.00
2023-01-18T15:00:59.348Z,574.00
2023-01-18T15:01:59.354Z,576.00
2023-01-18T15:02:59.385Z,571.00
2023-01-18T15:03:59.019Z,572.00
2023-01-18T15:04:58.942Z,572.00
2023-01-18T15:05:58.852Z,574.00
2023-01-18T15:06:58.767Z,578.00
2023-01-18T15:07:58.705Z,581.00
2023-01-18T15:08:58.628Z,580.00
2023-01-18T15:09:58.548Z,578.00
2023-01-18T15:10:58.469Z,582.00
2023-01-18T15:11:58.397Z,580.00
2023-01-18T15:12:58.759Z,579.00
2023-01-18T15:13:58.283Z,564.00
2023-01-18T15:14:58.187Z,571.00
2023-01-18T15:16:00.975Z,575.00
2023-01-18T15:16:58.035Z,578.00
2023-01-18T15:17:58.319Z,574.00
2023-01-18T15:18:57.835Z,579.00
2023-01-18T15:19:57.739Z,579.00
2023-01-18T15:20:57.652Z,578.00
2023-01-18T15:21:57.540Z,579.00
2023-01-18T15:22:57.811Z,577.00
2023-01-18T15:23:57.356Z,583.00
2023-01-18T15:24:57.254Z,583.00
2023-01-18T15:25:57.168Z,582.00
2023-01-18T15:26:57.071Z,588.00
2023-01-18T15:27:56.986Z,582.00
2023-01-18T15:28:56.887Z,583.00
2023-01-18T15:29:56.824Z,588.00
2023-01-18T15:30:56.714Z,584.00
2023-01-18T15:31:56.635Z,584.00
2023-01-18T15:32:56.651Z,585.00
2023-01-18T15:33:56.421Z,586.00
2023-01-18T15:34:56.323Z,595.00
2023-01-18T15:35:56.240Z,588.00
2023-01-18T15:36:56.138Z,594.00
2023-01-18T15:37:56.061Z,596.00
2023-01-18T15:38:55.943Z,593.00
2023-01-18T15:39:55.854Z,592.00
2023-01-18T15:40:55.765Z,594.00
2023-01-18T15:41:55.649Z,592.00
2023-01-18T15:42:55.558Z,599.00
2023-01-18T17:32:48.297Z,749.00
2023-01-18T17:40:47.897Z,757.00
2023-01-18T17:46:47.662Z,760.00
2023-01-18T18:06:54.178Z,801.00
2023-01-18T18:07:47.533Z,802.00
2023-01-18T18:08:46.429Z,802.00
2023-01-18T18:09:46.333Z,796.00
2023-01-18T18:10:46.239Z,789.00
2023-01-18T18:11:46.145Z,803.00
2023-01-18T18:12:46.031Z,819.00
2023-01-18T18:13:45.960Z,815.00
2023-01-18T18:14:45.852Z,814.00
2023-01-18T18:15:45.806Z,810.00
2023-01-18T18:16:45.712Z,817.00
2023-01-18T18:17:45.585Z,811.00
2023-01-18T21:36:36.041Z,1022.00
2023-01-18T21:37:35.997Z,1005.00
2023-01-18T21:38:35.955Z,1019.00
2023-01-18T21:39:35.942Z,1022.00
2023-01-18T21:40:35.859Z,1009.00
2023-01-18T21:41:35.813Z,1012.00
2023-01-18T21:42:35.763Z,1009.00
2023-01-18T21:43:35.712Z,1025.00
2023-01-18T21:44:35.680Z,1019.00
2023-01-18T21:45:35.657Z,1022.00
2023-01-18T21:46:35.584Z,1026.00
2023-01-18T21:47:35.546Z,1021.00
2023-01-18T21:48:35.498Z,1015.00
2023-01-18T23:02:33.120Z,1059.00
2023-01-18T23:03:33.131Z,1059.00
2023-01-18T23:04:33.067Z,1060.00
2023-01-18T23:05:33.040Z,1069.00
2023-01-18T23:06:33.016Z,1073.00
2023-01-18T23:07:32.990Z,1066.00
2023-01-18T23:08:32.963Z,1060.00
2023-01-18T23:09:32.936Z,1078.00
2023-01-18T23:10:32.916Z,1055.00
2023-01-18T23:11:32.882Z,1075.00
2023-01-18T23:12:32.851Z,1056.00
2023-01-18T23:13:32.840Z,1060.00
2023-01-18T23:14:32.809Z,1065.00
2023-01-18T23:15:32.818Z,1054.00
2023-01-18T23:16:32.757Z,1072.00
2023-01-18T23:17:32.724Z,1073.00
2023-01-18T23:18:32.740Z,1073.00
2023-01-18T23:19:32.673Z,1076.00
2023-01-18T23:20:32.650Z,1077.00
2023-01-18T23:21:32.628Z,1072.00
2023-01-18T23:22:32.594Z,1080.00
2023-01-18T23:23:32.562Z,1070.00
2023-01-18T23:24:32.521Z,1079.00
2023-01-18T23:25:32.494Z,1081.00
2023-01-18T23:26:32.482Z,1073.00
2023-01-18T23:27:32.453Z,1069.00
2023-01-18T23:28:32.406Z,1077.00
2023-01-18T23:29:32.385Z,1076.00
2023-01-18T23:30:32.382Z,1080.00
2023-01-18T23:31:32.384Z,1079.00
2023-01-18T23:32:32.313Z,1088.00
2023-01-18T23:33:32.289Z,1081.00
2023-01-18T23:34:32.273Z,1067.00
2023-01-18T23:35:32.220Z,1080.00
2023-01-18T23:36:32.209Z,1088.00
2023-01-18T23:37:32.186Z,1069.00
2023-01-18T23:38:32.155Z,1079.00
2023-01-18T23:39:32.206Z,1084.00
2023-01-18T23:40:32.113Z,1080.00
2023-01-18T23:41:32.106Z,1085.00
2023-01-18T23:42:32.077Z,1079.00
2023-01-18T23:43:32.041Z,1070.00
2023-01-18T23:44:32.030Z,1080.00
2023-01-18T23:45:32.009Z,1077.00
2023-01-18T23:46:32.097Z,1085.00
2023-01-18T23:57:31.733Z,1090.00
2023-01-18T23:58:31.713Z,1083.00
2023-01-18T23:59:31.686Z,1106.00
